Time;durP1;ratioP1;P1;durP2;ratioP2;P2;SDS_P1;SDS_P2;PMS_P1;PMS_P2;Temp;Humidity;BMP_temperature;BMP_pressure;BME280_temperature;BME280_humidity;BME280_pressure;Samples;Min_cycle;Max_cycle;Signal;HPM_P1;HPM_P2
2022/12/09 00:02:14;;;;;;;22.33;15.82;;;;;;;;;;4986476;28;20038;-72
2022/12/09 00:04:43;;;;;;;19.60;15.20;;;;;;;;;;4966693;28;20045;-72
2022/12/09 00:07:09;;;;;;;20.65;16.33;;;;;;;;;;4967588;28;20050;-72
2022/12/09 00:09:37;;;;;;;22.52;17.13;;;;;;;;;;4972502;28;20101;-72
2022/12/09 00:12:03;;;;;;;20.83;16.10;;;;;;;;;;4975271;28;20039;-72
2022/12/09 00:14:28;;;;;;;22.02;16.52;;;;;;;;;;4982447;28;20030;-72
2022/12/09 00:16:54;;;;;;;20.70;15.07;;;;;;;;;;4973595;28;20023;-72
2022/12/09 00:19:20;;;;;;;22.23;17.80;;;;;;;;;;4972846;28;20113;-72
2022/12/09 00:21:46;;;;;;;23.50;16.67;;;;;;;;;;4971998;28;20065;-71
2022/12/09 00:24:14;;;;;;;19.83;17.63;;;;;;;;;;4980841;28;20057;-72
2022/12/09 00:26:40;;;;;;;18.73;16.33;;;;;;;;;;4973845;28;20500;-72
2022/12/09 00:29:06;;;;;;;21.45;16.65;;;;;;;;;;4970473;28;20039;-72
2022/12/09 00:31:35;;;;;;;22.23;16.67;;;;;;;;;;4962677;28;20038;-72
2022/12/09 00:34:05;;;;;;;25.60;18.15;;;;;;;;;;4935434;28;20035;-73
2022/12/09 00:36:31;;;;;;;26.83;17.67;;;;;;;;;;4977221;28;20405;-72
2022/12/09 00:38:57;;;;;;;24.50;19.48;;;;;;;;;;4986950;28;20034;-72
2022/12/09 00:41:23;;;;;;;21.15;17.10;;;;;;;;;;4955696;28;20031;-72
2022/12/09 00:43:50;;;;;;;20.58;16.55;;;;;;;;;;4973425;28;20034;-72
2022/12/09 00:46:16;;;;;;;19.52;17.10;;;;;;;;;;4969193;28;20500;-72
2022/12/09 00:48:45;;;;;;;21.90;18.00;;;;;;;;;;4978167;28;20022;-72
2022/12/09 00:51:18;;;;;;;15.50;13.93;;;;;;;;;;4951940;28;20615;-73
2022/12/09 00:53:54;;;;;;;19.23;14.32;;;;;;;;;;4972783;28;20527;-73
2022/12/09 00:56:27;;;;;;;21.60;15.57;;;;;;;;;;4970957;28;20116;-73
2022/12/09 00:58:53;;;;;;;19.80;15.70;;;;;;;;;;4969033;28;20035;-73
2022/12/09 01:01:21;;;;;;;24.55;14.30;;;;;;;;;;4971367;28;20031;-72
2022/12/09 01:03:48;;;;;;;19.63;17.00;;;;;;;;;;4972500;28;20481;-73
2022/12/09 01:06:19;;;;;;;16.88;14.48;;;;;;;;;;4993089;23;20054;-78
2022/12/09 01:08:47;;;;;;;20.90;15.57;;;;;;;;;;4993194;28;20029;-78
2022/12/09 01:11:21;;;;;;;20.00;16.63;;;;;;;;;;4957115;28;20045;-77
2022/12/09 01:13:49;;;;;;;;;;;;;;;;;;4994946;28;20025;-78
2022/12/09 01:16:16;;;;;;;17.58;13.57;;;;;;;;;;5008352;28;19917;-77
2022/12/09 01:18:44;;;;;;;18.10;16.17;;;;;;;;;;4976734;28;20038;-78
2022/12/09 01:21:09;;;;;;;22.58;15.63;;;;;;;;;;4992857;28;20496;-78
2022/12/09 01:23:35;;;;;;;20.35;15.65;;;;;;;;;;4991147;28;20080;-78
2022/12/09 01:26:02;;;;;;;26.17;16.60;;;;;;;;;;4989337;28;20026;-78
2022/12/09 01:28:30;;;;;;;19.70;16.75;;;;;;;;;;4979527;28;20026;-78
2022/12/09 01:31:09;;;;;;;22.23;16.05;;;;;;;;;;4987122;28;20026;-78
2022/12/09 01:33:38;;;;;;;23.33;16.23;;;;;;;;;;4986835;28;20037;-78
2022/12/09 01:36:05;;;;;;;21.65;17.13;;;;;;;;;;4996685;28;20061;-78
2022/12/09 01:38:31;;;;;;;21.15;16.58;;;;;;;;;;4975647;28;20041;-78
2022/12/09 01:40:57;;;;;;;21.92;16.27;;;;;;;;;;4988777;28;20444;-78
2022/12/09 01:43:22;;;;;;;18.05;15.98;;;;;;;;;;4986359;28;20054;-78
2022/12/09 01:45:51;;;;;;;20.75;16.08;;;;;;;;;;4990366;28;20101;-78
2022/12/09 01:48:22;;;;;;;24.90;14.63;;;;;;;;;;4968972;28;20034;-79
2022/12/09 01:50:53;;;;;;;25.83;18.48;;;;;;;;;;4984452;28;20037;-78
2022/12/09 01:53:21;;;;;;;26.17;17.77;;;;;;;;;;5010249;28;20037;-78
2022/12/09 01:55:48;;;;;;;31.65;19.25;;;;;;;;;;4990186;28;20034;-78
2022/12/09 01:58:16;;;;;;;20.42;14.38;;;;;;;;;;4983524;28;20034;-78
2022/12/09 02:00:42;;;;;;;20.42;16.77;;;;;;;;;;4989180;28;20037;-78
2022/12/09 02:03:09;;;;;;;20.73;15.07;;;;;;;;;;4997996;28;20226;-78
2022/12/09 02:05:35;;;;;;;24.48;16.27;;;;;;;;;;4987813;28;20094;-78
2022/12/09 02:08:01;;;;;;;19.55;16.02;;;;;;;;;;4987091;28;20038;-78
2022/12/09 02:10:27;;;;;;;24.65;15.85;;;;;;;;;;4980401;28;20109;-78
2022/12/09 02:12:58;;;;;;;19.77;15.68;;;;;;;;;;4986316;28;20037;-78
2022/12/09 02:15:48;;;;;;;24.05;16.88;;;;;;;;;;4985995;28;20034;-78
2022/12/09 02:18:34;;;;;;;18.92;13.48;;;;;;;;;;4987080;28;20045;-78
2022/12/09 02:21:17;;;;;;;18.45;16.15;;;;;;;;;;5005442;28;20034;-78
2022/12/09 02:23:49;;;;;;;17.75;15.27;;;;;;;;;;4972705;28;20385;-78
2022/12/09 02:26:18;;;;;;;21.63;15.63;;;;;;;;;;4977371;28;20480;-78
2022/12/09 02:28:47;;;;;;;20.45;15.73;;;;;;;;;;4978148;28;20476;-78
2022/12/09 02:31:23;;;;;;;20.15;15.02;;;;;;;;;;4989919;28;20508;-77
2022/12/09 02:34:11;;;;;;;20.33;16.55;;;;;;;;;;4989667;28;20034;-78
2022/12/09 02:36:41;;;;;;;24.40;17.20;;;;;;;;;;4972588;28;20485;-78
2022/12/09 02:39:10;;;;;;;38.00;16.30;;;;;;;;;;4967387;28;20373;-78
2022/12/09 02:41:38;;;;;;;18.83;15.48;;;;;;;;;;4987663;28;20034;-78
2022/12/09 02:44:16;;;;;;;18.17;16.25;;;;;;;;;;5009378;28;20030;-78
2022/12/09 02:46:42;;;;;;;22.60;16.75;;;;;;;;;;4989742;28;20492;-78
2022/12/09 02:49:11;;;;;;;19.20;16.02;;;;;;;;;;4986665;28;20384;-78
2022/12/09 02:51:41;;;;;;;21.83;17.23;;;;;;;;;;4989862;28;20030;-78
2022/12/09 02:54:10;;;;;;;29.20;17.23;;;;;;;;;;5000800;28;20033;-78
2022/12/09 02:56:39;;;;;;;21.98;16.05;;;;;;;;;;4983090;28;20031;-78
2022/12/09 02:59:05;;;;;;;16.67;13.75;;;;;;;;;;4986626;28;20034;-78
2022/12/09 03:01:30;;;;;;;18.30;13.88;;;;;;;;;;4975791;28;20034;-78
2022/12/09 03:03:59;;;;;;;20.02;13.88;;;;;;;;;;4998902;28;20385;-78
2022/12/09 03:06:30;;;;;;;20.75;14.45;;;;;;;;;;4995431;28;20479;-78
2022/12/09 03:09:03;;;;;;;21.35;14.73;;;;;;;;;;4997131;28;20033;-78
2022/12/09 03:11:30;;;;;;;21.05;15.40;;;;;;;;;;4987361;28;20030;-78
2022/12/09 03:13:58;;;;;;;22.58;13.15;;;;;;;;;;4982894;28;20030;-78
2022/12/09 03:16:35;;;;;;;15.20;12.70;;;;;;;;;;4991011;28;20037;-78
2022/12/09 03:19:04;;;;;;;18.30;13.18;;;;;;;;;;4985054;28;20396;-78
2022/12/09 03:21:31;;;;;;;16.45;14.48;;;;;;;;;;4977227;28;20041;-78
2022/12/09 03:24:00;;;;;;;18.52;13.13;;;;;;;;;;4978870;28;20034;-75
2022/12/09 03:26:33;;;;;;;18.60;15.95;;;;;;;;;;4991583;28;20029;-75
2022/12/09 03:29:01;;;;;;;16.73;12.90;;;;;;;;;;4992712;28;20026;-75
2022/12/09 03:31:35;;;;;;;18.60;14.07;;;;;;;;;;4999671;28;20033;-75
2022/12/09 03:34:08;;;;;;;18.88;14.85;;;;;;;;;;5009997;28;20034;-75
2022/12/09 03:36:37;;;;;;;16.67;14.82;;;;;;;;;;4985176;28;20027;-76
2022/12/09 03:39:05;;;;;;;21.27;17.58;;;;;;;;;;4985657;28;20034;-75
2022/12/09 03:41:35;;;;;;;21.02;15.18;;;;;;;;;;5000822;28;20038;-75
2022/12/09 03:44:08;;;;;;;22.50;14.48;;;;;;;;;;4992052;28;20026;-75
2022/12/09 03:46:34;;;;;;;18.08;14.13;;;;;;;;;;4994516;28;20034;-76
2022/12/09 03:48:59;;;;;;;19.48;15.20;;;;;;;;;;4985924;28;20074;-75
2022/12/09 03:51:37;;;;;;;28.65;16.90;;;;;;;;;;4998533;28;20085;-75
2022/12/09 03:54:12;;;;;;;20.00;16.13;;;;;;;;;;4985277;28;20138;-75
2022/12/09 03:56:42;;;;;;;17.02;11.45;;;;;;;;;;4992158;28;20031;-76
2022/12/09 03:59:11;;;;;;;24.55;14.27;;;;;;;;;;4986431;28;20038;-76
2022/12/09 04:01:39;;;;;;;18.98;12.63;;;;;;;;;;5000447;28;20034;-76
2022/12/09 04:04:07;;;;;;;20.88;16.67;;;;;;;;;;4975957;28;20031;-76
2022/12/09 04:06:37;;;;;;;19.70;14.07;;;;;;;;;;4991010;28;20041;-76
2022/12/09 04:09:06;;;;;;;32.45;15.63;;;;;;;;;;4991036;28;20031;-76
2022/12/09 04:11:34;;;;;;;14.32;12.07;;;;;;;;;;4992195;28;20026;-76
2022/12/09 04:14:02;;;;;;;21.20;13.52;;;;;;;;;;4993653;28;20034;-76
2022/12/09 04:16:28;;;;;;;15.88;13.85;;;;;;;;;;4983496;28;20034;-76
2022/12/09 04:18:56;;;;;;;18.17;12.13;;;;;;;;;;4989353;28;20500;-76
2022/12/09 04:21:24;;;;;;;20.75;15.55;;;;;;;;;;4986536;28;20042;-76
2022/12/09 04:23:50;;;;;;;28.27;20.23;;;;;;;;;;5001189;28;20339;-76
2022/12/09 04:26:22;;;;;;;28.05;18.73;;;;;;;;;;5004116;28;20469;-76
2022/12/09 04:28:48;;;;;;;24.98;16.90;;;;;;;;;;4991294;28;20041;-76
2022/12/09 04:31:17;;;;;;;20.45;14.02;;;;;;;;;;4988894;28;20027;-76
2022/12/09 04:33:46;;;;;;;22.25;13.30;;;;;;;;;;4991656;28;20030;-76
2022/12/09 04:36:13;;;;;;;22.27;17.52;;;;;;;;;;4982479;28;20035;-76
2022/12/09 04:38:42;;;;;;;32.00;22.33;;;;;;;;;;4980759;28;20030;-76
2022/12/09 04:41:10;;;;;;;24.05;16.10;;;;;;;;;;4985715;28;20038;-76
2022/12/09 04:43:36;;;;;;;18.13;14.73;;;;;;;;;;4990933;28;20034;-76
2022/12/09 04:46:04;;;;;;;17.90;13.70;;;;;;;;;;4994681;28;20022;-76
2022/12/09 04:48:32;;;;;;;20.67;14.75;;;;;;;;;;4975973;28;20038;-76
2022/12/09 04:50:58;;;;;;;18.88;14.80;;;;;;;;;;4980072;28;20568;-76
2022/12/09 04:53:29;;;;;;;27.80;18.52;;;;;;;;;;4982535;28;20026;-77
2022/12/09 04:56:14;;;;;;;16.92;14.88;;;;;;;;;;4987978;28;20038;-76
2022/12/09 04:58:39;;;;;;;14.90;13.38;;;;;;;;;;4981767;28;20037;-76
2022/12/09 05:01:08;;;;;;;19.42;14.27;;;;;;;;;;4986944;28;20049;-76
2022/12/09 05:03:39;;;;;;;23.25;14.68;;;;;;;;;;4988601;28;20023;-76
2022/12/09 05:06:06;;;;;;;42.10;17.42;;;;;;;;;;4996760;28;20026;-76
2022/12/09 05:08:32;;;;;;;63.90;18.92;;;;;;;;;;4993290;28;20022;-77
2022/12/09 05:10:58;;;;;;;101.80;24.27;;;;;;;;;;4981500;28;20029;-76
2022/12/09 05:13:26;;;;;;;83.05;21.27;;;;;;;;;;4972689;28;20042;-77
2022/12/09 05:16:00;;;;;;;113.78;25.70;;;;;;;;;;4962385;28;20380;-76
2022/12/09 05:18:26;;;;;;;67.20;22.63;;;;;;;;;;4986892;28;20030;-77
2022/12/09 05:20:54;;;;;;;139.23;27.75;;;;;;;;;;4980601;28;20046;-76
2022/12/09 05:23:23;;;;;;;96.00;23.85;;;;;;;;;;4979513;28;20034;-76
2022/12/09 05:25:48;;;;;;;120.47;24.38;;;;;;;;;;4985350;28;20038;-77
2022/12/09 05:28:14;;;;;;;201.25;33.65;;;;;;;;;;4979903;28;20072;-76
2022/12/09 05:30:43;;;;;;;83.10;21.42;;;;;;;;;;4991281;28;20030;-76
2022/12/09 05:33:11;;;;;;;20.30;15.90;;;;;;;;;;4987730;28;20033;-76
2022/12/09 05:35:37;;;;;;;27.27;18.48;;;;;;;;;;4999151;28;20023;-75
2022/12/09 05:38:03;;;;;;;23.88;17.17;;;;;;;;;;4990815;28;20454;-76
2022/12/09 05:40:28;;;;;;;21.60;15.07;;;;;;;;;;5006141;28;20037;-76
2022/12/09 05:42:56;;;;;;;45.88;17.95;;;;;;;;;;4980872;28;20038;-76
2022/12/09 05:45:23;;;;;;;19.42;16.30;;;;;;;;;;4988173;28;20050;-76
2022/12/09 05:47:49;;;;;;;20.95;16.17;;;;;;;;;;4991436;28;20034;-76
2022/12/09 05:50:15;;;;;;;114.50;23.40;;;;;;;;;;4985154;28;20050;-76
2022/12/09 05:52:41;;;;;;;58.83;19.10;;;;;;;;;;4986906;28;20480;-76
2022/12/09 05:55:10;;;;;;;144.07;23.98;;;;;;;;;;4975786;28;20089;-76
2022/12/09 05:57:36;;;;;;;45.13;18.75;;;;;;;;;;4985838;28;20026;-76
2022/12/09 06:00:05;;;;;;;30.38;17.73;;;;;;;;;;4988998;28;20027;-76
2022/12/09 06:02:37;;;;;;;67.53;17.80;;;;;;;;;;5000403;28;20030;-76
2022/12/09 06:05:06;;;;;;;60.72;17.23;;;;;;;;;;4991079;28;20480;-76
2022/12/09 06:07:32;;;;;;;107.93;18.10;;;;;;;;;;4985527;28;20477;-76
2022/12/09 06:10:00;;;;;;;44.95;19.52;;;;;;;;;;4987414;28;20416;-76
2022/12/09 06:12:29;;;;;;;81.25;19.85;;;;;;;;;;4982131;28;20044;-76
2022/12/09 06:14:55;;;;;;;56.53;18.90;;;;;;;;;;4991868;28;20496;-76
2022/12/09 06:17:20;;;;;;;71.30;20.33;;;;;;;;;;4994471;28;20382;-76
2022/12/09 06:19:46;;;;;;;55.92;17.90;;;;;;;;;;4980566;28;20062;-76
2022/12/09 06:22:12;;;;;;;105.70;23.23;;;;;;;;;;4980022;28;20107;-76
2022/12/09 06:24:40;;;;;;;157.02;28.33;;;;;;;;;;4991002;28;20027;-76
2022/12/09 06:27:06;;;;;;;133.35;26.98;;;;;;;;;;4991421;28;20022;-76
2022/12/09 06:29:34;;;;;;;71.85;22.13;;;;;;;;;;4994339;28;20033;-76
2022/12/09 06:32:00;;;;;;;142.75;22.83;;;;;;;;;;4989072;28;20035;-76
2022/12/09 06:34:28;;;;;;;80.25;19.08;;;;;;;;;;4980332;28;20101;-76
2022/12/09 06:36:56;;;;;;;24.10;17.08;;;;;;;;;;4983567;28;20495;-76
2022/12/09 06:39:27;;;;;;;22.95;16.50;;;;;;;;;;4982441;28;20035;-76
2022/12/09 06:41:55;;;;;;;19.90;12.88;;;;;;;;;;4973917;28;20038;-76
2022/12/09 06:44:26;;;;;;;19.15;17.10;;;;;;;;;;4983512;28;20034;-76
2022/12/09 06:46:52;;;;;;;16.58;13.60;;;;;;;;;;4983816;28;20034;-76
2022/12/09 06:49:22;;;;;;;18.85;16.23;;;;;;;;;;4981577;28;20027;-76
2022/12/09 06:51:50;;;;;;;24.65;12.93;;;;;;;;;;4975757;28;20042;-76
2022/12/09 06:54:18;;;;;;;13.95;11.77;;;;;;;;;;4986506;28;20035;-76
2022/12/09 06:56:47;;;;;;;21.58;12.20;;;;;;;;;;4989496;28;20462;-76
2022/12/09 06:59:15;;;;;;;13.75;12.32;;;;;;;;;;4977578;28;20027;-76
2022/12/09 07:01:41;;;;;;;15.77;12.23;;;;;;;;;;4994823;28;20034;-75
2022/12/09 07:04:08;;;;;;;14.65;11.75;;;;;;;;;;4982121;28;20088;-76
2022/12/09 07:06:38;;;;;;;21.20;15.50;;;;;;;;;;5010728;22;20049;-77
2022/12/09 07:09:07;;;;;;;17.85;15.20;;;;;;;;;;4978009;28;20038;-72
2022/12/09 07:11:36;;;;;;;18.88;13.48;;;;;;;;;;4982787;28;20034;-73
2022/12/09 07:14:02;;;;;;;22.35;15.48;;;;;;;;;;4982768;28;20026;-73
2022/12/09 07:16:30;;;;;;;15.70;14.00;;;;;;;;;;5006589;28;20033;-73
2022/12/09 07:18:58;;;;;;;23.38;15.50;;;;;;;;;;4998484;28;20450;-73
2022/12/09 07:21:25;;;;;;;20.73;15.85;;;;;;;;;;5008149;28;20497;-72
2022/12/09 07:23:51;;;;;;;18.92;13.45;;;;;;;;;;5006030;28;20045;-74
2022/12/09 07:26:19;;;;;;;16.50;13.82;;;;;;;;;;5008238;28;20038;-73
2022/12/09 07:28:46;;;;;;;20.67;14.48;;;;;;;;;;5008829;28;20033;-73
2022/12/09 07:31:27;;;;;;;20.63;16.17;;;;;;;;;;5007084;28;20488;-73
2022/12/09 07:33:56;;;;;;;16.30;12.32;;;;;;;;;;5023288;28;20384;-72
2022/12/09 07:36:22;;;;;;;20.38;15.75;;;;;;;;;;5023823;28;20038;-72
2022/12/09 07:38:52;;;;;;;23.90;15.18;;;;;;;;;;5015480;28;20038;-73
2022/12/09 07:41:18;;;;;;;16.25;14.65;;;;;;;;;;5005127;28;20041;-72
2022/12/09 07:43:46;;;;;;;22.77;14.65;;;;;;;;;;5005790;28;20030;-72
2022/12/09 07:46:18;;;;;;;20.30;16.73;;;;;;;;;;5013088;28;20030;-72
2022/12/09 07:48:46;;;;;;;21.88;15.77;;;;;;;;;;5002044;28;20035;-73
2022/12/09 07:51:15;;;;;;;15.25;12.52;;;;;;;;;;5005868;28;20045;-72
2022/12/09 07:53:43;;;;;;;19.55;15.13;;;;;;;;;;5011185;28;20033;-72
2022/12/09 07:56:28;;;;;;;15.48;13.65;;;;;;;;;;5012329;28;20037;-72
2022/12/09 07:58:55;;;;;;;24.27;19.23;;;;;;;;;;4992478;28;20484;-71
2022/12/09 08:01:27;;;;;;;20.63;15.13;;;;;;;;;;5024150;28;20038;-71
2022/12/09 08:03:54;;;;;;;19.33;15.70;;;;;;;;;;5008554;28;20982;-72
2022/12/09 08:06:23;;;;;;;23.55;17.73;;;;;;;;;;5013875;28;20033;-72
2022/12/09 08:08:49;;;;;;;26.80;17.30;;;;;;;;;;4992273;28;20477;-72
2022/12/09 08:11:21;;;;;;;33.53;23.92;;;;;;;;;;4998993;28;20064;-72
2022/12/09 08:13:47;;;;;;;24.85;20.75;;;;;;;;;;5012912;28;20495;-72
2022/12/09 08:16:19;;;;;;;31.02;20.80;;;;;;;;;;4991558;28;20041;-72
2022/12/09 08:18:47;;;;;;;21.70;19.08;;;;;;;;;;5004755;28;20034;-72
2022/12/09 08:21:21;;;;;;;24.30;20.50;;;;;;;;;;5009280;28;20725;-72
2022/12/09 08:23:53;;;;;;;25.00;18.13;;;;;;;;;;5011456;28;20026;-72
2022/12/09 08:26:25;;;;;;;29.25;22.30;;;;;;;;;;5007220;28;20037;-72
2022/12/09 08:28:53;;;;;;;29.67;19.70;;;;;;;;;;5019814;28;20030;-72
2022/12/09 08:31:20;;;;;;;34.72;26.23;;;;;;;;;;4989346;28;20130;-73
2022/12/09 08:33:53;;;;;;;28.27;20.92;;;;;;;;;;5011378;28;20041;-73
2022/12/09 08:36:23;;;;;;;27.33;21.95;;;;;;;;;;5024118;28;20026;-73
2022/12/09 08:38:51;;;;;;;25.17;21.48;;;;;;;;;;5007851;28;20052;-73
2022/12/09 08:41:33;;;;;;;26.63;20.77;;;;;;;;;;5006018;28;20205;-73
2022/12/09 08:44:05;;;;;;;23.92;19.77;;;;;;;;;;5005342;28;20468;-73
2022/12/09 08:46:37;;;;;;;26.83;22.40;;;;;;;;;;5007395;28;20029;-72
2022/12/09 08:49:05;;;;;;;32.75;24.38;;;;;;;;;;5007817;28;20032;-72
2022/12/09 08:51:34;;;;;;;24.40;20.75;;;;;;;;;;5013716;28;20044;-73
2022/12/09 08:54:05;;;;;;;27.88;23.30;;;;;;;;;;5005980;28;20022;-73
2022/12/09 08:56:33;;;;;;;20.35;18.08;;;;;;;;;;5027163;28;20034;-73
2022/12/09 08:58:59;;;;;;;24.98;21.80;;;;;;;;;;5004352;28;20030;-75
2022/12/09 09:01:30;;;;;;;27.90;21.08;;;;;;;;;;5007705;28;20037;-72
2022/12/09 09:04:21;;;;;;;35.85;23.70;;;;;;;;;;5005647;28;20046;-72
2022/12/09 09:06:48;;;;;;;27.73;22.13;;;;;;;;;;5020954;28;20407;-72
2022/12/09 09:09:19;;;;;;;29.98;21.08;;;;;;;;;;5014511;28;20033;-72
2022/12/09 09:11:47;;;;;;;31.40;21.45;;;;;;;;;;5014284;28;20041;-73
2022/12/09 09:14:15;;;;;;;28.95;21.83;;;;;;;;;;5010177;28;20113;-73
2022/12/09 09:16:42;;;;;;;30.73;23.02;;;;;;;;;;5010188;28;20041;-73
2022/12/09 09:19:12;;;;;;;28.40;21.30;;;;;;;;;;5011244;28;20021;-73
2022/12/09 09:21:38;;;;;;;43.55;24.33;;;;;;;;;;5020812;28;20034;-72
2022/12/09 09:24:09;;;;;;;34.92;24.80;;;;;;;;;;5008054;28;20068;-72
2022/12/09 09:26:40;;;;;;;30.55;26.48;;;;;;;;;;5011953;28;20506;-72
2022/12/09 09:29:06;;;;;;;31.90;24.92;;;;;;;;;;5002162;28;20033;-72
2022/12/09 09:31:33;;;;;;;28.13;24.80;;;;;;;;;;5008374;28;20036;-72
2022/12/09 09:34:01;;;;;;;23.80;21.20;;;;;;;;;;4992369;28;20033;-72
2022/12/09 09:36:32;;;;;;;28.83;20.30;;;;;;;;;;5005006;28;20507;-71
2022/12/09 09:39:00;;;;;;;24.77;19.45;;;;;;;;;;4998834;28;20029;-72
2022/12/09 09:41:45;;;;;;;19.30;16.98;;;;;;;;;;5009912;28;20041;-72
2022/12/09 09:44:22;;;;;;;20.15;17.85;;;;;;;;;;5014463;28;20030;-72
2022/12/09 09:46:49;;;;;;;20.65;17.63;;;;;;;;;;5004584;28;20041;-71
2022/12/09 09:49:36;;;;;;;27.23;16.98;;;;;;;;;;5006478;28;20027;-71
2022/12/09 09:52:04;;;;;;;26.80;19.00;;;;;;;;;;5005743;28;20037;-72
2022/12/09 09:54:30;;;;;;;24.35;19.67;;;;;;;;;;5006265;28;20527;-71
2022/12/09 09:56:59;;;;;;;26.80;18.73;;;;;;;;;;5004003;28;20408;-73
2022/12/09 09:59:42;;;;;;;24.70;19.33;;;;;;;;;;5008921;28;20037;-71
2022/12/09 10:02:11;;;;;;;23.75;19.20;;;;;;;;;;5002226;28;20032;-72
2022/12/09 10:05:02;;;;;;;26.40;20.27;;;;;;;;;;4990176;28;20097;-72
2022/12/09 10:07:34;;;;;;;27.80;18.13;;;;;;;;;;5026012;28;20050;-73
2022/12/09 10:10:00;;;;;;;24.80;18.70;;;;;;;;;;4990140;28;20034;-72
2022/12/09 10:12:32;;;;;;;22.83;16.55;;;;;;;;;;5005157;28;20079;-72
2022/12/09 10:15:21;;;;;;;20.13;16.48;;;;;;;;;;5027211;28;20022;-72
2022/12/09 10:18:03;;;;;;;19.90;13.63;;;;;;;;;;5009369;28;20506;-72
2022/12/09 10:20:31;;;;;;;;;;;;;;;;;;5003458;28;20026;-72
2022/12/09 10:23:10;;;;;;;17.95;15.40;;;;;;;;;;5004008;28;20338;-72
2022/12/09 10:25:41;;;;;;;20.00;14.73;;;;;;;;;;4999002;28;20026;-72
2022/12/09 10:28:23;;;;;;;17.77;12.48;;;;;;;;;;5004619;28;20224;-72
2022/12/09 10:30:53;;;;;;;16.98;12.95;;;;;;;;;;5008491;28;20040;-72
2022/12/09 10:33:30;;;;;;;19.45;12.07;;;;;;;;;;5021996;28;20034;-72
2022/12/09 10:35:59;;;;;;;21.00;14.88;;;;;;;;;;5022275;28;20033;-73
2022/12/09 10:38:31;;;;;;;19.40;12.43;;;;;;;;;;5007088;28;20049;-73
2022/12/09 10:43:33;;;;;;;17.55;11.85;;;;;;;;;;5003181;28;20034;-73
2022/12/09 10:44:15;;;;;;;16.58;12.32;;;;;;;;;;5003410;28;20038;-73
2022/12/09 10:46:41;;;;;;;16.63;11.40;;;;;;;;;;4985187;28;20033;-72
2022/12/09 10:49:14;;;;;;;16.05;12.30;;;;;;;;;;5013754;28;20061;-72
2022/12/09 10:51:45;;;;;;;19.98;11.48;;;;;;;;;;5010443;28;20033;-73
2022/12/09 10:54:11;;;;;;;17.38;12.80;;;;;;;;;;5007018;28;20034;-71
2022/12/09 10:56:59;;;;;;;15.27;11.70;;;;;;;;;;5007492;28;20031;-71
2022/12/09 10:59:28;;;;;;;17.15;11.20;;;;;;;;;;5002950;28;20034;-74
2022/12/09 11:01:57;;;;;;;18.45;13.43;;;;;;;;;;5001757;28;20042;-73
2022/12/09 11:04:26;;;;;;;18.02;14.18;;;;;;;;;;5012813;28;20339;-73
2022/12/09 11:06:56;;;;;;;20.70;14.27;;;;;;;;;;5010232;28;20037;-73
2022/12/09 11:09:30;;;;;;;15.27;12.70;;;;;;;;;;5007633;28;20030;-73
2022/12/09 11:11:56;;;;;;;17.35;10.73;;;;;;;;;;5001870;28;20098;-73
2022/12/09 11:14:36;;;;;;;21.20;13.98;;;;;;;;;;4988649;28;20053;-73
2022/12/09 11:17:13;;;;;;;19.63;15.15;;;;;;;;;;5029218;28;20042;-73
2022/12/09 11:19:42;;;;;;;18.67;15.40;;;;;;;;;;5005174;28;20571;-74
2022/12/09 11:22:14;;;;;;;16.98;12.90;;;;;;;;;;5010166;28;20408;-74
2022/12/09 11:24:40;;;;;;;19.08;13.13;;;;;;;;;;5011021;28;20420;-74
2022/12/09 11:27:40;;;;;;;24.10;16.25;;;;;;;;;;4992873;28;20034;-73
2022/12/09 11:30:17;;;;;;;20.30;13.20;;;;;;;;;;4962407;28;20097;-73
2022/12/09 11:33:00;;;;;;;15.90;14.02;;;;;;;;;;5003594;28;20041;-73
2022/12/09 11:35:38;;;;;;;20.20;14.97;;;;;;;;;;5004303;28;20034;-73
2022/12/09 11:38:39;;;;;;;17.92;12.38;;;;;;;;;;5008437;28;20472;-75
2022/12/09 11:42:12;;;;;;;18.15;13.63;;;;;;;;;;4931876;29;20042;-71
2022/12/09 11:44:17;;;;;;;21.27;16.02;;;;;;;;;;5008324;28;20037;-72
2022/12/09 11:46:43;;;;;;;21.45;13.10;;;;;;;;;;5023313;28;20049;-72
2022/12/09 11:49:15;;;;;;;23.77;13.25;;;;;;;;;;5010267;28;20030;-72
2022/12/09 11:51:45;;;;;;;20.65;14.98;;;;;;;;;;5028271;28;20025;-73
2022/12/09 11:54:26;;;;;;;18.23;12.63;;;;;;;;;;5010568;28;20022;-72
2022/12/09 11:56:55;;;;;;;20.52;13.45;;;;;;;;;;4974453;28;20042;-73
2022/12/09 11:59:23;;;;;;;20.08;15.60;;;;;;;;;;5008114;28;20029;-74
2022/12/09 12:01:56;;;;;;;16.30;11.35;;;;;;;;;;5017288;28;20394;-73
2022/12/09 12:04:43;;;;;;;14.02;11.02;;;;;;;;;;5013407;28;20050;-71
2022/12/09 12:07:11;;;;;;;16.77;12.48;;;;;;;;;;5003286;28;20057;-72
2022/12/09 12:09:46;;;;;;;18.50;11.60;;;;;;;;;;5008283;28;20037;-72
2022/12/09 12:12:18;;;;;;;16.83;12.07;;;;;;;;;;5010893;28;20034;-72
2022/12/09 12:14:44;;;;;;;21.92;13.88;;;;;;;;;;5015109;28;20519;-72
2022/12/09 12:17:15;;;;;;;20.60;12.07;;;;;;;;;;5011685;28;20476;-72
2022/12/09 12:19:42;;;;;;;16.88;11.88;;;;;;;;;;4986620;28;20037;-73
2022/12/09 12:22:16;;;;;;;14.55;12.82;;;;;;;;;;5020011;28;20033;-73
2022/12/09 12:24:51;;;;;;;18.38;12.95;;;;;;;;;;5013002;28;20032;-71
2022/12/09 12:27:31;;;;;;;16.48;11.90;;;;;;;;;;5010673;28;20030;-74
2022/12/09 12:30:19;;;;;;;16.25;11.85;;;;;;;;;;5006302;28;20027;-71
2022/12/09 12:33:19;;;;;;;13.27;11.52;;;;;;;;;;5009771;28;20033;-71
2022/12/09 12:35:48;;;;;;;12.63;11.25;;;;;;;;;;5010139;28;20048;-71
2022/12/09 12:38:35;;;;;;;16.85;12.70;;;;;;;;;;5003707;28;20048;-73
2022/12/09 12:41:01;;;;;;;21.15;15.57;;;;;;;;;;5013474;28;20034;-73
2022/12/09 12:46:26;;;;;;;20.35;11.10;;;;;;;;;;5016476;28;20033;-72
2022/12/09 12:48:52;;;;;;;16.67;11.63;;;;;;;;;;5011153;28;20026;-73
2022/12/09 12:51:36;;;;;;;13.90;11.02;;;;;;;;;;5005255;28;20033;-73
2022/12/09 12:54:02;;;;;;;13.15;9.63;;;;;;;;;;4999897;28;20034;-72
2022/12/09 12:56:38;;;;;;;13.10;11.50;;;;;;;;;;5010316;28;20033;-71
2022/12/09 12:59:13;;;;;;;13.40;10.25;;;;;;;;;;5003462;28;20022;-72
2022/12/09 13:01:45;;;;;;;17.33;10.73;;;;;;;;;;5005909;28;20057;-73
2022/12/09 13:04:19;;;;;;;13.82;11.75;;;;;;;;;;4988336;28;20041;-73
2022/12/09 13:06:59;;;;;;;13.40;9.88;;;;;;;;;;5023561;22;20396;-71
2022/12/09 13:09:33;;;;;;;16.75;10.77;;;;;;;;;;5010657;28;20034;-72
2022/12/09 13:12:10;;;;;;;13.27;9.93;;;;;;;;;;5023339;28;20034;-72
2022/12/09 13:14:52;;;;;;;15.15;10.27;;;;;;;;;;5017650;28;20029;-72
2022/12/09 13:17:22;;;;;;;10.90;8.15;;;;;;;;;;4994556;28;20393;-71
2022/12/09 13:19:52;;;;;;;17.55;10.52;;;;;;;;;;4991441;28;20034;-71
2022/12/09 13:22:28;;;;;;;9.68;8.77;;;;;;;;;;4973284;28;20503;-71
2022/12/09 13:25:07;;;;;;;17.58;11.05;;;;;;;;;;4988504;28;20026;-71
2022/12/09 13:27:33;;;;;;;13.05;10.70;;;;;;;;;;4991080;28;20487;-72
2022/12/09 13:30:04;;;;;;;15.32;10.23;;;;;;;;;;4970175;28;20035;-72
2022/12/09 13:32:41;;;;;;;11.43;9.52;;;;;;;;;;4986849;28;20393;-72
2022/12/09 13:35:09;;;;;;;13.52;11.02;;;;;;;;;;4984352;28;20025;-72
2022/12/09 13:37:35;;;;;;;12.18;10.35;;;;;;;;;;4993073;28;20026;-72
2022/12/09 13:40:26;;;;;;;14.13;11.25;;;;;;;;;;4989269;28;20030;-72
2022/12/09 13:43:01;;;;;;;13.20;8.80;;;;;;;;;;4985101;28;20049;-72
2022/12/09 13:45:32;;;;;;;12.27;9.30;;;;;;;;;;4971427;28;20050;-72
2022/12/09 13:48:03;;;;;;;;;;;;;;;;;;5007915;28;20397;-72
2022/12/09 13:50:34;;;;;;;11.23;8.98;;;;;;;;;;4989515;28;19992;-72
2022/12/09 13:53:22;;;;;;;12.07;8.73;;;;;;;;;;4992997;28;20388;-72
2022/12/09 13:55:54;;;;;;;18.05;11.27;;;;;;;;;;4973816;28;20473;-73
2022/12/09 13:58:35;;;;;;;14.38;11.25;;;;;;;;;;4999852;28;20412;-72
2022/12/09 14:01:12;;;;;;;12.50;10.38;;;;;;;;;;4987104;28;20026;-72
2022/12/09 14:04:09;;;;;;;14.88;10.23;;;;;;;;;;4991776;28;20046;-72
2022/12/09 14:06:39;;;;;;;16.50;13.40;;;;;;;;;;4986618;28;20026;-72
2022/12/09 14:09:21;;;;;;;18.58;12.90;;;;;;;;;;4998416;28;20029;-72
2022/12/09 14:11:48;;;;;;;15.25;11.07;;;;;;;;;;4997579;28;20035;-72
2022/12/09 14:14:17;;;;;;;13.93;11.07;;;;;;;;;;4992588;28;20030;-72
2022/12/09 14:16:43;;;;;;;11.77;10.00;;;;;;;;;;4977088;28;20385;-72
2022/12/09 14:19:35;;;;;;;13.80;11.60;;;;;;;;;;4992782;28;20026;-72
2022/12/09 14:22:17;;;;;;;17.02;13.15;;;;;;;;;;4990666;28;20018;-72
2022/12/09 14:25:15;;;;;;;16.80;11.40;;;;;;;;;;4982986;28;20053;-72
2022/12/09 14:28:01;;;;;;;13.90;9.77;;;;;;;;;;4982165;28;20046;-72
2022/12/09 14:30:30;;;;;;;17.52;11.45;;;;;;;;;;4989015;28;20035;-72
2022/12/09 14:32:58;;;;;;;19.30;12.10;;;;;;;;;;4990603;28;20428;-72
2022/12/09 14:35:45;;;;;;;17.67;13.10;;;;;;;;;;4984256;28;20038;-72
2022/12/09 14:38:13;;;;;;;21.75;12.32;;;;;;;;;;4987371;28;20045;-72
2022/12/09 14:40:42;;;;;;;17.95;14.25;;;;;;;;;;4995269;28;20034;-72
2022/12/09 14:43:16;;;;;;;19.23;13.48;;;;;;;;;;4993886;28;20477;-72
2022/12/09 14:45:54;;;;;;;21.23;13.88;;;;;;;;;;4993904;28;20038;-73